sensor_id;sensor_type;location;lat;lon;timestamp;P1;durP1;ratioP1;P2;durP2;ratioP2
64291;SDS011;50628;51.008;13.658;2023-04-24T00:03:00;11.13;;;6.60;;
64291;SDS011;50628;51.008;13.658;2023-04-24T00:08:04;8.90;;;6.67;;
64291;SDS011;50628;51.008;13.658;2023-04-24T00:13:06;7.53;;;6.60;;
64291;SDS011;50628;51.008;13.658;2023-04-24T00:18:08;7.50;;;6.53;;
64291;SDS011;50628;51.008;13.658;2023-04-24T00:23:11;8.73;;;7.23;;
64291;SDS011;50628;51.008;13.658;2023-04-24T00:28:13;7.70;;;6.97;;
64291;SDS011;50628;51.008;13.658;2023-04-24T00:33:15;20.07;;;13.60;;
64291;SDS011;50628;51.008;13.658;2023-04-24T00:38:19;8.63;;;7.83;;
64291;SDS011;50628;51.008;13.658;2023-04-24T00:43:22;7.97;;;7.07;;
64291;SDS011;50628;51.008;13.658;2023-04-24T00:48:24;8.23;;;7.40;;
64291;SDS011;50628;51.008;13.658;2023-04-24T00:53:28;8.37;;;6.77;;
64291;SDS011;50628;51.008;13.658;2023-04-24T00:58:30;7.33;;;6.63;;
64291;SDS011;50628;51.008;13.658;2023-04-24T01:03:33;8.50;;;7.03;;
64291;SDS011;50628;51.008;13.658;2023-04-24T01:08:38;8.50;;;7.23;;
64291;SDS011;50628;51.008;13.658;2023-04-24T01:13:41;8.67;;;7.20;;
64291;SDS011;50628;51.008;13.658;2023-04-24T01:18:44;7.03;;;6.33;;
64291;SDS011;50628;51.008;13.658;2023-04-24T01:23:47;7.93;;;7.03;;
64291;SDS011;50628;51.008;13.658;2023-04-24T01:28:52;7.97;;;6.40;;
64291;SDS011;50628;51.008;13.658;2023-04-24T01:33:54;8.90;;;7.43;;
64291;SDS011;50628;51.008;13.658;2023-04-24T01:38:58;9.03;;;6.67;;
64291;SDS011;50628;51.008;13.658;2023-04-24T01:44:00;11.37;;;7.77;;
64291;SDS011;50628;51.008;13.658;2023-04-24T01:49:03;9.23;;;6.97;;
64291;SDS011;50628;51.008;13.658;2023-04-24T01:54:07;6.70;;;5.90;;
64291;SDS011;50628;51.008;13.658;2023-04-24T01:59:10;7.07;;;6.30;;
64291;SDS011;50628;51.008;13.658;2023-04-24T02:04:12;9.40;;;6.90;;
64291;SDS011;50628;51.008;13.658;2023-04-24T02:09:16;8.93;;;7.17;;
64291;SDS011;50628;51.008;13.658;2023-04-24T02:14:18;9.97;;;7.67;;
64291;SDS011;50628;51.008;13.658;2023-04-24T02:19:20;16.90;;;7.87;;
64291;SDS011;50628;51.008;13.658;2023-04-24T02:24:26;9.43;;;7.47;;
64291;SDS011;50628;51.008;13.658;2023-04-24T02:29:28;7.33;;;6.63;;
64291;SDS011;50628;51.008;13.658;2023-04-24T02:34:30;7.37;;;6.67;;
64291;SDS011;50628;51.008;13.658;2023-04-24T02:39:35;9.40;;;7.03;;
64291;SDS011;50628;51.008;13.658;2023-04-24T02:44:36;11.57;;;6.73;;
64291;SDS011;50628;51.008;13.658;2023-04-24T02:49:38;10.97;;;6.83;;
64291;SDS011;50628;51.008;13.658;2023-04-24T02:54:42;11.30;;;6.20;;
64291;SDS011;50628;51.008;13.658;2023-04-24T02:59:44;14.30;;;7.77;;
64291;SDS011;50628;51.008;13.658;2023-04-24T03:04:45;13.23;;;7.73;;
64291;SDS011;50628;51.008;13.658;2023-04-24T03:09:49;19.00;;;7.87;;
64291;SDS011;50628;51.008;13.658;2023-04-24T03:14:51;11.27;;;7.47;;
64291;SDS011;50628;51.008;13.658;2023-04-24T03:19:53;12.20;;;7.37;;
64291;SDS011;50628;51.008;13.658;2023-04-24T03:24:56;14.80;;;7.97;;
64291;SDS011;50628;51.008;13.658;2023-04-24T03:29:59;9.43;;;7.50;;
64291;SDS011;50628;51.008;13.658;2023-04-24T03:35:10;17.07;;;7.37;;
64291;SDS011;50628;51.008;13.658;2023-04-24T03:40:14;11.30;;;5.40;;
64291;SDS011;50628;51.008;13.658;2023-04-24T03:45:16;9.00;;;3.13;;
64291;SDS011;50628;51.008;13.658;2023-04-24T03:50:22;1.80;;;0.97;;
64291;SDS011;50628;51.008;13.658;2023-04-24T03:55:26;11.07;;;1.50;;
64291;SDS011;50628;51.008;13.658;2023-04-24T04:00:28;1.53;;;0.60;;
64291;SDS011;50628;51.008;13.658;2023-04-24T04:05:53;1.10;;;0.50;;
64291;SDS011;50628;51.008;13.658;2023-04-24T04:10:57;1.23;;;0.40;;
64291;SDS011;50628;51.008;13.658;2023-04-24T04:15:58;1.13;;;0.40;;
64291;SDS011;50628;51.008;13.658;2023-04-24T04:21:01;1.07;;;0.30;;
64291;SDS011;50628;51.008;13.658;2023-04-24T04:26:04;4.83;;;0.60;;
64291;SDS011;50628;51.008;13.658;2023-04-24T04:31:32;3.97;;;0.47;;
64291;SDS011;50628;51.008;13.658;2023-04-24T04:36:40;5.33;;;0.50;;
64291;SDS011;50628;51.008;13.658;2023-04-24T04:42:07;7.40;;;0.93;;
64291;SDS011;50628;51.008;13.658;2023-04-24T04:47:13;7.47;;;1.03;;
64291;SDS011;50628;51.008;13.658;2023-04-24T04:52:17;1.70;;;0.40;;
64291;SDS011;50628;51.008;13.658;2023-04-24T04:57:23;2.00;;;0.90;;
64291;SDS011;50628;51.008;13.658;2023-04-24T05:02:25;2.63;;;0.60;;
64291;SDS011;50628;51.008;13.658;2023-04-24T05:07:27;3.50;;;0.43;;
64291;SDS011;50628;51.008;13.658;2023-04-24T05:12:31;4.87;;;0.80;;
64291;SDS011;50628;51.008;13.658;2023-04-24T05:17:35;6.10;;;1.47;;
64291;SDS011;50628;51.008;13.658;2023-04-24T05:22:38;6.50;;;1.00;;
64291;SDS011;50628;51.008;13.658;2023-04-24T05:27:42;2.30;;;0.80;;
64291;SDS011;50628;51.008;13.658;2023-04-24T05:32:49;2.30;;;0.50;;
64291;SDS011;50628;51.008;13.658;2023-04-24T05:37:51;5.33;;;1.10;;
64291;SDS011;50628;51.008;13.658;2023-04-24T05:42:54;5.17;;;0.80;;
64291;SDS011;50628;51.008;13.658;2023-04-24T05:47:58;17.43;;;8.37;;
64291;SDS011;50628;51.008;13.658;2023-04-24T05:53:00;3.83;;;1.47;;
64291;SDS011;50628;51.008;13.658;2023-04-24T05:58:08;5.97;;;2.20;;
64291;SDS011;50628;51.008;13.658;2023-04-24T06:03:12;5.70;;;1.20;;
64291;SDS011;50628;51.008;13.658;2023-04-24T06:08:14;3.17;;;0.60;;
64291;SDS011;50628;51.008;13.658;2023-04-24T06:13:19;6.00;;;0.63;;
64291;SDS011;50628;51.008;13.658;2023-04-24T06:18:41;0.73;;;0.40;;
64291;SDS011;50628;51.008;13.658;2023-04-24T06:23:43;5.43;;;0.87;;
64291;SDS011;50628;51.008;13.658;2023-04-24T06:28:48;6.33;;;1.90;;
64291;SDS011;50628;51.008;13.658;2023-04-24T06:33:50;6.23;;;1.00;;
64291;SDS011;50628;51.008;13.658;2023-04-24T06:38:52;3.93;;;0.80;;
64291;SDS011;50628;51.008;13.658;2023-04-24T06:43:55;4.10;;;0.70;;
64291;SDS011;50628;51.008;13.658;2023-04-24T06:48:57;6.50;;;1.00;;
64291;SDS011;50628;51.008;13.658;2023-04-24T06:53:59;5.63;;;0.87;;
64291;SDS011;50628;51.008;13.658;2023-04-24T06:59:02;4.00;;;0.50;;
64291;SDS011;50628;51.008;13.658;2023-04-24T07:04:05;4.57;;;0.30;;
64291;SDS011;50628;51.008;13.658;2023-04-24T07:09:06;1.13;;;0.30;;
64291;SDS011;50628;51.008;13.658;2023-04-24T07:14:10;0.70;;;0.20;;
64291;SDS011;50628;51.008;13.658;2023-04-24T07:19:12;1.97;;;0.47;;
64291;SDS011;50628;51.008;13.658;2023-04-24T07:24:15;1.60;;;0.50;;
64291;SDS011;50628;51.008;13.658;2023-04-24T07:29:18;6.70;;;0.50;;
64291;SDS011;50628;51.008;13.658;2023-04-24T07:34:21;1.13;;;0.40;;
64291;SDS011;50628;51.008;13.658;2023-04-24T07:39:23;5.20;;;0.43;;
64291;SDS011;50628;51.008;13.658;2023-04-24T07:44:26;1.57;;;0.40;;
64291;SDS011;50628;51.008;13.658;2023-04-24T07:49:28;2.93;;;0.40;;
64291;SDS011;50628;51.008;13.658;2023-04-24T07:54:30;6.47;;;0.67;;
64291;SDS011;50628;51.008;13.658;2023-04-24T07:59:33;4.67;;;0.60;;
64291;SDS011;50628;51.008;13.658;2023-04-24T08:04:35;6.17;;;1.23;;
64291;SDS011;50628;51.008;13.658;2023-04-24T08:09:37;1.97;;;0.70;;
64291;SDS011;50628;51.008;13.658;2023-04-24T08:14:40;5.05;;;0.65;;
64291;SDS011;50628;51.008;13.658;2023-04-24T08:19:42;5.22;;;1.60;;
64291;SDS011;50628;51.008;13.658;2023-04-24T08:24:48;4.60;;;1.10;;
64291;SDS011;50628;51.008;13.658;2023-04-24T08:29:52;10.10;;;1.53;;
64291;SDS011;50628;51.008;13.658;2023-04-24T08:34:54;3.40;;;1.23;;
64291;SDS011;50628;51.008;13.658;2023-04-24T08:39:56;7.77;;;1.17;;
64291;SDS011;50628;51.008;13.658;2023-04-24T08:44:59;7.43;;;0.60;;
64291;SDS011;50628;51.008;13.658;2023-04-24T08:50:02;2.83;;;0.60;;
64291;SDS011;50628;51.008;13.658;2023-04-24T08:55:06;3.60;;;0.33;;
64291;SDS011;50628;51.008;13.658;2023-04-24T09:00:10;2.57;;;0.50;;
64291;SDS011;50628;51.008;13.658;2023-04-24T09:05:13;7.97;;;0.97;;
64291;SDS011;50628;51.008;13.658;2023-04-24T09:10:15;2.53;;;0.50;;
64291;SDS011;50628;51.008;13.658;2023-04-24T09:15:18;4.87;;;0.83;;
64291;SDS011;50628;51.008;13.658;2023-04-24T09:20:21;2.33;;;0.30;;
64291;SDS011;50628;51.008;13.658;2023-04-24T09:25:25;1.00;;;0.30;;
64291;SDS011;50628;51.008;13.658;2023-04-24T09:30:34;13.07;;;1.33;;
64291;SDS011;50628;51.008;13.658;2023-04-24T09:35:39;4.97;;;1.30;;
64291;SDS011;50628;51.008;13.658;2023-04-24T09:40:42;5.30;;;0.40;;
64291;SDS011;50628;51.008;13.658;2023-04-24T09:45:45;7.00;;;0.70;;
64291;SDS011;50628;51.008;13.658;2023-04-24T09:50:49;4.33;;;0.50;;
64291;SDS011;50628;51.008;13.658;2023-04-24T09:55:53;5.27;;;0.70;;
64291;SDS011;50628;51.008;13.658;2023-04-24T10:00:56;4.57;;;0.87;;
64291;SDS011;50628;51.008;13.658;2023-04-24T10:05:58;5.63;;;0.70;;
64291;SDS011;50628;51.008;13.658;2023-04-24T10:11:01;1.07;;;0.30;;
64291;SDS011;50628;51.008;13.658;2023-04-24T10:16:04;1.43;;;0.20;;
64291;SDS011;50628;51.008;13.658;2023-04-24T10:21:07;2.65;;;0.20;;
64291;SDS011;50628;51.008;13.658;2023-04-24T10:26:09;6.30;;;0.60;;
64291;SDS011;50628;51.008;13.658;2023-04-24T10:31:18;0.50;;;0.40;;
64291;SDS011;50628;51.008;13.658;2023-04-24T10:36:22;3.30;;;0.40;;
64291;SDS011;50628;51.008;13.658;2023-04-24T10:41:26;1.33;;;0.60;;
64291;SDS011;50628;51.008;13.658;2023-04-24T10:46:30;1.80;;;0.57;;
64291;SDS011;50628;51.008;13.658;2023-04-24T10:51:45;6.07;;;0.47;;
64291;SDS011;50628;51.008;13.658;2023-04-24T10:56:49;7.22;;;0.70;;
64291;SDS011;50628;51.008;13.658;2023-04-24T11:01:56;4.82;;;0.73;;
64291;SDS011;50628;51.008;13.658;2023-04-24T11:06:58;8.87;;;0.73;;
64291;SDS011;50628;51.008;13.658;2023-04-24T11:12:03;5.20;;;0.53;;
64291;SDS011;50628;51.008;13.658;2023-04-24T11:17:09;3.83;;;0.30;;
64291;SDS011;50628;51.008;13.658;2023-04-24T11:22:30;1.20;;;0.20;;
64291;SDS011;50628;51.008;13.658;2023-04-24T11:27:38;2.20;;;0.50;;
64291;SDS011;50628;51.008;13.658;2023-04-24T11:32:42;1.00;;;0.40;;
64291;SDS011;50628;51.008;13.658;2023-04-24T11:37:45;0.22;;;0.20;;
64291;SDS011;50628;51.008;13.658;2023-04-24T11:42:49;0.73;;;0.30;;
64291;SDS011;50628;51.008;13.658;2023-04-24T11:47:53;11.52;;;0.77;;
64291;SDS011;50628;51.008;13.658;2023-04-24T11:52:56;2.28;;;0.50;;
64291;SDS011;50628;51.008;13.658;2023-04-24T11:57:58;3.25;;;0.68;;
64291;SDS011;50628;51.008;13.658;2023-04-24T12:03:07;1.20;;;0.60;;
64291;SDS011;50628;51.008;13.658;2023-04-24T12:08:10;9.73;;;1.00;;
64291;SDS011;50628;51.008;13.658;2023-04-24T12:13:12;10.97;;;1.50;;
64291;SDS011;50628;51.008;13.658;2023-04-24T12:18:15;15.37;;;1.03;;
64291;SDS011;50628;51.008;13.658;2023-04-24T12:23:32;1.23;;;0.50;;
64291;SDS011;50628;51.008;13.658;2023-04-24T12:28:35;1.08;;;0.30;;
64291;SDS011;50628;51.008;13.658;2023-04-24T12:33:40;1.85;;;0.50;;
64291;SDS011;50628;51.008;13.658;2023-04-24T12:38:43;2.38;;;0.40;;
64291;SDS011;50628;51.008;13.658;2023-04-24T12:43:53;1.77;;;0.60;;
64291;SDS011;50628;51.008;13.658;2023-04-24T12:48:56;4.87;;;0.60;;
64291;SDS011;50628;51.008;13.658;2023-04-24T12:54:04;4.90;;;1.60;;
64291;SDS011;50628;51.008;13.658;2023-04-24T12:59:06;4.05;;;0.40;;
64291;SDS011;50628;51.008;13.658;2023-04-24T13:04:09;9.57;;;0.60;;
64291;SDS011;50628;51.008;13.658;2023-04-24T13:09:11;1.45;;;0.40;;
64291;SDS011;50628;51.008;13.658;2023-04-24T13:14:13;6.93;;;0.82;;
64291;SDS011;50628;51.008;13.658;2023-04-24T13:19:17;6.35;;;1.23;;
64291;SDS011;50628;51.008;13.658;2023-04-24T13:24:19;3.35;;;0.68;;
64291;SDS011;50628;51.008;13.658;2023-04-24T13:29:24;3.55;;;0.77;;
64291;SDS011;50628;51.008;13.658;2023-04-24T13:34:28;9.10;;;1.08;;
64291;SDS011;50628;51.008;13.658;2023-04-24T13:39:30;5.55;;;0.70;;
64291;SDS011;50628;51.008;13.658;2023-04-24T13:44:32;4.80;;;0.57;;
64291;SDS011;50628;51.008;13.658;2023-04-24T13:49:35;4.45;;;0.77;;
64291;SDS011;50628;51.008;13.658;2023-04-24T13:54:37;1.33;;;0.70;;
64291;SDS011;50628;51.008;13.658;2023-04-24T13:59:39;6.13;;;1.25;;
64291;SDS011;50628;51.008;13.658;2023-04-24T14:04:42;2.10;;;0.47;;
64291;SDS011;50628;51.008;13.658;2023-04-24T14:09:44;5.07;;;0.65;;
64291;SDS011;50628;51.008;13.658;2023-04-24T14:14:46;4.22;;;0.60;;
64291;SDS011;50628;51.008;13.658;2023-04-24T14:19:50;6.32;;;0.75;;
64291;SDS011;50628;51.008;13.658;2023-04-24T14:24:52;1.92;;;0.35;;
64291;SDS011;50628;51.008;13.658;2023-04-24T14:29:54;2.83;;;0.95;;
64291;SDS011;50628;51.008;13.658;2023-04-24T14:34:58;5.68;;;0.95;;
64291;SDS011;50628;51.008;13.658;2023-04-24T14:40:00;8.80;;;1.60;;
64291;SDS011;50628;51.008;13.658;2023-04-24T14:45:02;9.35;;;1.02;;
64291;SDS011;50628;51.008;13.658;2023-04-24T14:50:06;5.28;;;0.70;;
64291;SDS011;50628;51.008;13.658;2023-04-24T14:55:09;5.68;;;0.50;;
64291;SDS011;50628;51.008;13.658;2023-04-24T15:00:12;0.98;;;0.32;;
64291;SDS011;50628;51.008;13.658;2023-04-24T15:05:16;4.68;;;0.80;;
64291;SDS011;50628;51.008;13.658;2023-04-24T15:10:18;3.50;;;0.50;;
64291;SDS011;50628;51.008;13.658;2023-04-24T15:15:23;1.85;;;0.30;;
64291;SDS011;50628;51.008;13.658;2023-04-24T15:20:26;3.20;;;0.50;;
64291;SDS011;50628;51.008;13.658;2023-04-24T15:25:28;1.00;;;0.30;;
64291;SDS011;50628;51.008;13.658;2023-04-24T15:30:30;1.45;;;0.38;;
64291;SDS011;50628;51.008;13.658;2023-04-24T15:35:33;6.07;;;1.45;;
64291;SDS011;50628;51.008;13.658;2023-04-24T15:40:35;2.33;;;0.98;;
64291;SDS011;50628;51.008;13.658;2023-04-24T15:45:38;0.73;;;0.38;;
64291;SDS011;50628;51.008;13.658;2023-04-24T15:50:41;4.93;;;0.90;;
64291;SDS011;50628;51.008;13.658;2023-04-24T15:55:43;2.85;;;0.90;;
64291;SDS011;50628;51.008;13.658;2023-04-24T16:00:45;1.07;;;0.57;;
64291;SDS011;50628;51.008;13.658;2023-04-24T16:05:48;2.30;;;0.77;;
64291;SDS011;50628;51.008;13.658;2023-04-24T16:10:50;4.10;;;0.70;;
64291;SDS011;50628;51.008;13.658;2023-04-24T16:15:52;4.23;;;1.00;;
64291;SDS011;50628;51.008;13.658;2023-04-24T16:20:55;2.27;;;0.93;;
64291;SDS011;50628;51.008;13.658;2023-04-24T16:25:57;3.03;;;0.90;;
64291;SDS011;50628;51.008;13.658;2023-04-24T16:30:59;1.20;;;0.40;;
64291;SDS011;50628;51.008;13.658;2023-04-24T16:36:02;2.47;;;0.90;;
64291;SDS011;50628;51.008;13.658;2023-04-24T16:41:04;0.30;;;0.30;;
64291;SDS011;50628;51.008;13.658;2023-04-24T16:46:06;0.70;;;0.30;;
64291;SDS011;50628;51.008;13.658;2023-04-24T16:51:10;2.03;;;0.47;;
64291;SDS011;50628;51.008;13.658;2023-04-24T16:56:11;1.00;;;0.47;;
64291;SDS011;50628;51.008;13.658;2023-04-24T17:01:13;4.43;;;0.83;;
64291;SDS011;50628;51.008;13.658;2023-04-24T17:06:16;6.97;;;1.10;;
64291;SDS011;50628;51.008;13.658;2023-04-24T17:11:18;6.53;;;1.40;;
64291;SDS011;50628;51.008;13.658;2023-04-24T17:16:21;2.23;;;0.97;;
64291;SDS011;50628;51.008;13.658;2023-04-24T17:21:24;2.97;;;0.80;;
64291;SDS011;50628;51.008;13.658;2023-04-24T17:26:27;10.60;;;0.83;;
64291;SDS011;50628;51.008;13.658;2023-04-24T17:31:31;0.40;;;0.30;;
64291;SDS011;50628;51.008;13.658;2023-04-24T17:36:34;7.97;;;2.10;;
64291;SDS011;50628;51.008;13.658;2023-04-24T17:41:37;0.63;;;0.40;;
64291;SDS011;50628;51.008;13.658;2023-04-24T17:46:39;1.40;;;0.30;;
64291;SDS011;50628;51.008;13.658;2023-04-24T17:51:42;0.80;;;0.60;;
64291;SDS011;50628;51.008;13.658;2023-04-24T17:56:44;1.57;;;0.90;;
64291;SDS011;50628;51.008;13.658;2023-04-24T18:01:46;2.20;;;0.90;;
64291;SDS011;50628;51.008;13.658;2023-04-24T18:06:50;1.63;;;0.40;;
64291;SDS011;50628;51.008;13.658;2023-04-24T18:11:52;2.60;;;0.50;;
64291;SDS011;50628;51.008;13.658;2023-04-24T18:16:53;0.63;;;0.30;;
64291;SDS011;50628;51.008;13.658;2023-04-24T18:21:57;0.70;;;0.20;;
64291;SDS011;50628;51.008;13.658;2023-04-24T18:26:59;0.60;;;0.30;;
64291;SDS011;50628;51.008;13.658;2023-04-24T18:32:00;1.70;;;0.20;;
64291;SDS011;50628;51.008;13.658;2023-04-24T18:37:05;0.40;;;0.30;;
64291;SDS011;50628;51.008;13.658;2023-04-24T18:42:07;0.43;;;0.30;;
64291;SDS011;50628;51.008;13.658;2023-04-24T18:47:09;0.30;;;0.30;;
64291;SDS011;50628;51.008;13.658;2023-04-24T18:52:12;0.47;;;0.20;;
64291;SDS011;50628;51.008;13.658;2023-04-24T18:57:14;2.20;;;0.30;;
64291;SDS011;50628;51.008;13.658;2023-04-24T19:02:16;3.20;;;0.40;;
64291;SDS011;50628;51.008;13.658;2023-04-24T19:07:19;0.23;;;0.23;;
64291;SDS011;50628;51.008;13.658;2023-04-24T19:12:21;1.30;;;0.30;;
64291;SDS011;50628;51.008;13.658;2023-04-24T19:17:23;0.30;;;0.20;;
64291;SDS011;50628;51.008;13.658;2023-04-24T19:22:27;2.53;;;0.40;;
64291;SDS011;50628;51.008;13.658;2023-04-24T19:27:29;0.83;;;0.30;;
64291;SDS011;50628;51.008;13.658;2023-04-24T19:32:31;1.40;;;0.40;;
64291;SDS011;50628;51.008;13.658;2023-04-24T19:37:34;1.43;;;0.30;;
64291;SDS011;50628;51.008;13.658;2023-04-24T19:42:36;1.50;;;0.40;;
64291;SDS011;50628;51.008;13.658;2023-04-24T19:47:38;0.53;;;0.43;;
64291;SDS011;50628;51.008;13.658;2023-04-24T19:52:41;0.40;;;0.30;;
64291;SDS011;50628;51.008;13.658;2023-04-24T19:57:43;3.03;;;0.40;;
64291;SDS011;50628;51.008;13.658;2023-04-24T20:02:45;1.57;;;0.30;;
64291;SDS011;50628;51.008;13.658;2023-04-24T20:07:48;2.80;;;0.70;;
64291;SDS011;50628;51.008;13.658;2023-04-24T20:12:50;0.87;;;0.87;;
64291;SDS011;50628;51.008;13.658;2023-04-24T20:17:53;1.07;;;0.60;;
64291;SDS011;50628;51.008;13.658;2023-04-24T20:22:56;2.93;;;0.90;;
64291;SDS011;50628;51.008;13.658;2023-04-24T20:27:58;0.83;;;0.80;;
64291;SDS011;50628;51.008;13.658;2023-04-24T20:33:00;3.23;;;1.23;;
64291;SDS011;50628;51.008;13.658;2023-04-24T20:38:03;2.63;;;1.23;;
64291;SDS011;50628;51.008;13.658;2023-04-24T20:43:05;2.50;;;1.03;;
64291;SDS011;50628;51.008;13.658;2023-04-24T20:48:07;0.93;;;0.80;;
64291;SDS011;50628;51.008;13.658;2023-04-24T20:53:11;1.63;;;1.47;;
64291;SDS011;50628;51.008;13.658;2023-04-24T20:58:13;2.80;;;1.10;;
64291;SDS011;50628;51.008;13.658;2023-04-24T21:03:16;3.17;;;1.60;;
64291;SDS011;50628;51.008;13.658;2023-04-24T21:08:19;2.40;;;1.27;;
64291;SDS011;50628;51.008;13.658;2023-04-24T21:13:21;2.30;;;1.40;;
64291;SDS011;50628;51.008;13.658;2023-04-24T21:18:23;1.97;;;1.20;;
64291;SDS011;50628;51.008;13.658;2023-04-24T21:23:26;1.97;;;1.00;;
64291;SDS011;50628;51.008;13.658;2023-04-24T21:28:28;4.60;;;1.40;;
64291;SDS011;50628;51.008;13.658;2023-04-24T21:33:31;3.27;;;2.13;;
64291;SDS011;50628;51.008;13.658;2023-04-24T21:38:34;4.10;;;1.40;;
64291;SDS011;50628;51.008;13.658;2023-04-24T21:43:36;1.50;;;1.20;;
64291;SDS011;50628;51.008;13.658;2023-04-24T21:48:38;2.77;;;1.00;;
64291;SDS011;50628;51.008;13.658;2023-04-24T21:53:41;1.83;;;1.03;;
64291;SDS011;50628;51.008;13.658;2023-04-24T21:58:43;2.33;;;1.10;;
64291;SDS011;50628;51.008;13.658;2023-04-24T22:03:46;2.50;;;1.00;;
64291;SDS011;50628;51.008;13.658;2023-04-24T22:08:49;2.03;;;1.00;;
64291;SDS011;50628;51.008;13.658;2023-04-24T22:13:51;2.63;;;0.97;;
64291;SDS011;50628;51.008;13.658;2023-04-24T22:18:53;21.67;;;7.83;;
64291;SDS011;50628;51.008;13.658;2023-04-24T22:23:56;10.20;;;3.50;;
64291;SDS011;50628;51.008;13.658;2023-04-24T22:28:58;7.73;;;2.97;;
64291;SDS011;50628;51.008;13.658;2023-04-24T22:34:00;3.13;;;1.70;;
64291;SDS011;50628;51.008;13.658;2023-04-24T22:39:04;4.13;;;2.10;;
64291;SDS011;50628;51.008;13.658;2023-04-24T22:44:06;3.00;;;1.73;;
64291;SDS011;50628;51.008;13.658;2023-04-24T22:49:08;2.90;;;1.60;;
64291;SDS011;50628;51.008;13.658;2023-04-24T22:54:12;4.10;;;1.70;;
64291;SDS011;50628;51.008;13.658;2023-04-24T22:59:14;3.00;;;2.00;;
64291;SDS011;50628;51.008;13.658;2023-04-24T23:04:16;2.77;;;2.33;;
64291;SDS011;50628;51.008;13.658;2023-04-24T23:09:19;6.10;;;2.13;;
64291;SDS011;50628;51.008;13.658;2023-04-24T23:14:21;1.90;;;1.80;;
64291;SDS011;50628;51.008;13.658;2023-04-24T23:19:24;5.27;;;2.30;;
64291;SDS011;50628;51.008;13.658;2023-04-24T23:24:27;3.27;;;1.97;;
64291;SDS011;50628;51.008;13.658;2023-04-24T23:29:29;2.27;;;1.70;;
64291;SDS011;50628;51.008;13.658;2023-04-24T23:34:31;2.77;;;1.80;;
64291;SDS011;50628;51.008;13.658;2023-04-24T23:39:34;3.33;;;1.60;;
64291;SDS011;50628;51.008;13.658;2023-04-24T23:44:36;2.87;;;1.40;;
64291;SDS011;50628;51.008;13.658;2023-04-24T23:49:38;2.03;;;1.40;;
64291;SDS011;50628;51.008;13.658;2023-04-24T23:54:41;4.20;;;2.13;;
64291;SDS011;50628;51.008;13.658;2023-04-24T23:59:43;2.43;;;1.90;;
